Russell, Arkansas
Current Conditions -  °F | °C
As of 7:56 PM on Saturday 22 Nov 2014 (Local Time) from KSRC Reporting Station
Few Clouds Few Clouds  
Wind Chill: 55°   Ceiling: Unl
Heat Index: 55°   Visibility: 10mi
Dew Point: 49°   Wind: 6mph
Humidity: 80%   Direction: 120°ESE
Pressure: 29.99"   Gusts: NA
Location:  35.36°N, 91.51°W
Report Text: KSRC 230156Z AUTO 12005KT 10SM FEW042 13/09 A2999 RMK AO2 SLP163 T01280094 TSNO
Loading
Personal Weather Stations






























Interactive Weather Map New forecast layout! Learn more

10-Day Weather Forecast

Advertisements
Track Severe Weather on mobile